Time;durP1;ratioP1;P1;durP2;ratioP2;P2;SDS_P1;SDS_P2;PMS_P1;PMS_P2;Temp;Humidity;BMP_temperature;BMP_pressure;BME280_temperature;BME280_humidity;BME280_pressure;Samples;Min_cycle;Max_cycle;Signal;HPM_P1;HPM_P2
2023/11/21 00:01:58;;;;;;;4.90;3.50;;;25.40;99.90;;;;;;4993014;28;20038;-47
2023/11/21 00:04:24;;;;;;;5.87;3.97;;;25.40;99.90;;;;;;4994474;28;20041;-48
2023/11/21 00:06:50;;;;;;;6.35;4.38;;;25.40;99.90;;;;;;5003690;28;20018;-47
2023/11/21 00:09:17;;;;;;;8.35;4.72;;;25.40;99.90;;;;;;4993328;28;20022;-47
2023/11/21 00:11:44;;;;;;;6.55;3.83;;;25.40;99.90;;;;;;4993396;28;20026;-46
2023/11/21 00:14:15;;;;;;;5.78;4.22;;;25.40;99.90;;;;;;5001830;28;20022;-47
2023/11/21 00:16:41;;;;;;;6.88;4.00;;;25.40;99.90;;;;;;4994864;28;20150;-46
2023/11/21 00:19:07;;;;;;;10.73;4.43;;;25.40;99.90;;;;;;4993458;28;20030;-46
2023/11/21 00:21:32;;;;;;;7.38;4.10;;;25.40;99.90;;;;;;4994735;28;20026;-46
2023/11/21 00:23:58;;;;;;;6.13;4.00;;;25.40;99.90;;;;;;4992643;28;20113;-46
2023/11/21 00:26:24;;;;;;;6.93;4.00;;;25.30;99.90;;;;;;4997315;28;20430;-47
2023/11/21 00:28:50;;;;;;;8.93;4.85;;;25.30;99.90;;;;;;4999195;28;20148;-47
2023/11/21 00:31:16;;;;;;;8.45;4.25;;;25.30;99.90;;;;;;4988362;28;20076;-46
2023/11/21 00:33:43;;;;;;;9.57;4.47;;;25.30;99.90;;;;;;5001580;28;20355;-47
2023/11/21 00:36:09;;;;;;;6.85;4.00;;;25.30;99.90;;;;;;5000376;28;20081;-47
2023/11/21 00:38:36;;;;;;;5.25;4.20;;;25.30;99.90;;;;;;4996222;28;20054;-47
2023/11/21 00:41:02;;;;;;;7.80;4.33;;;25.30;99.90;;;;;;4995720;28;20089;-46
2023/11/21 00:43:28;;;;;;;9.25;4.50;;;25.30;99.90;;;;;;4991755;28;20026;-47
2023/11/21 00:45:54;;;;;;;6.10;4.40;;;25.30;99.90;;;;;;4994306;28;20038;-46
2023/11/21 00:48:20;;;;;;;7.75;4.30;;;25.30;99.90;;;;;;4994393;28;20073;-45
2023/11/21 00:50:46;;;;;;;8.32;4.63;;;25.30;99.90;;;;;;4992263;28;20022;-45
2023/11/21 00:53:11;;;;;;;6.63;4.63;;;25.30;99.90;;;;;;4994192;28;20498;-45
2023/11/21 00:55:40;;;;;;;6.55;4.82;;;25.20;99.90;;;;;;5010312;28;20033;-46
2023/11/21 00:58:06;;;;;;;7.05;3.97;;;25.20;99.90;;;;;;5011905;28;20018;-46
2023/11/21 01:00:33;;;;;;;7.40;4.37;;;25.20;99.90;;;;;;5011983;28;20474;-45
2023/11/21 01:02:59;;;;;;;7.80;4.27;;;25.20;99.90;;;;;;5011295;28;20060;-45
2023/11/21 01:05:25;;;;;;;5.90;4.00;;;25.20;99.90;;;;;;5011842;28;20033;-45
2023/11/21 01:07:52;;;;;;;6.18;4.68;;;25.20;99.90;;;;;;5011286;28;20402;-45
2023/11/21 01:10:18;;;;;;;8.85;4.60;;;25.20;99.90;;;;;;5011771;28;20034;-46
2023/11/21 01:12:44;;;;;;;5.57;3.88;;;25.20;99.90;;;;;;5012890;28;20032;-45
2023/11/21 01:15:12;;;;;;;6.53;4.38;;;25.20;99.90;;;;;;5015234;28;20045;-46
2023/11/21 01:17:38;;;;;;;7.03;4.43;;;25.20;99.90;;;;;;5015733;28;20022;-45
2023/11/21 01:20:11;;;;;;;6.05;3.90;;;25.10;99.90;;;;;;5015393;28;20108;-45
2023/11/21 01:22:37;;;;;;;7.25;4.28;;;25.10;99.90;;;;;;5014501;28;20030;-46
2023/11/21 01:25:07;;;;;;;8.30;4.97;;;25.10;99.90;;;;;;5014305;28;20052;-46
2023/11/21 01:27:36;;;;;;;6.75;4.53;;;25.10;99.90;;;;;;5015156;28;20478;-45
2023/11/21 01:30:03;;;;;;;7.07;4.20;;;25.10;99.90;;;;;;5014640;28;20033;-45
2023/11/21 01:32:29;;;;;;;6.13;3.80;;;25.10;99.90;;;;;;5014205;28;20028;-46
2023/11/21 01:34:57;;;;;;;5.60;3.95;;;25.10;99.90;;;;;;5014921;28;20096;-46
2023/11/21 01:37:24;;;;;;;6.72;4.32;;;25.10;99.90;;;;;;5014930;28;20113;-46
2023/11/21 01:39:50;;;;;;;6.43;4.28;;;25.00;99.90;;;;;;5014817;28;20017;-46
2023/11/21 01:42:15;;;;;;;6.22;4.63;;;25.00;99.90;;;;;;5014425;28;20032;-47
2023/11/21 01:44:41;;;;;;;5.97;3.90;;;25.00;99.90;;;;;;5014930;28;20033;-46
2023/11/21 01:47:09;;;;;;;8.82;4.43;;;25.00;99.90;;;;;;5014379;28;20105;-44
2023/11/21 01:49:35;;;;;;;7.45;4.43;;;25.00;99.90;;;;;;4997674;28;20129;-45
2023/11/21 01:52:04;;;;;;;6.15;3.70;;;25.00;99.90;;;;;;5013483;28;20022;-45
2023/11/21 01:54:32;;;;;;;6.60;4.22;;;25.00;99.90;;;;;;4996444;28;20030;-45
2023/11/21 01:57:02;;;;;;;5.85;4.63;;;25.00;99.90;;;;;;5013756;28;20022;-45
2023/11/21 01:59:37;;;;;;;5.50;4.18;;;25.00;99.90;;;;;;5014727;28;20029;-45
2023/11/21 02:02:06;;;;;;;6.85;4.18;;;25.00;99.90;;;;;;5056337;22;20081;-54
2023/11/21 02:04:36;;;;;;;5.65;4.47;;;25.00;99.90;;;;;;5049200;28;20034;-56
2023/11/21 02:07:06;;;;;;;10.57;4.43;;;25.00;99.90;;;;;;5052075;28;20021;-56
2023/11/21 02:09:33;;;;;;;5.35;3.90;;;25.00;99.90;;;;;;5053653;28;20088;-56
2023/11/21 02:11:59;;;;;;;;;;;25.00;99.90;;;;;;5054612;28;20049;-57
2023/11/21 02:14:28;;;;;;;8.52;4.05;;;25.00;99.90;;;;;;5053837;28;20435;-53
2023/11/21 02:16:55;;;;;;;7.88;4.32;;;25.00;99.90;;;;;;5035167;28;20040;-54
2023/11/21 02:19:25;;;;;;;5.50;4.13;;;25.00;99.90;;;;;;5045519;28;20063;-54
2023/11/21 02:21:55;;;;;;;5.63;4.20;;;24.90;99.90;;;;;;5048804;28;20394;-55
2023/11/21 02:24:22;;;;;;;6.43;4.70;;;24.90;99.90;;;;;;5031381;28;20504;-56
2023/11/21 02:26:51;;;;;;;13.15;4.88;;;24.90;99.90;;;;;;5049333;28;20025;-55
2023/11/21 02:29:27;;;;;;;5.80;4.40;;;24.90;99.90;;;;;;5051888;28;20024;-56
2023/11/21 02:31:54;;;;;;;4.45;3.95;;;24.90;99.90;;;;;;5037803;28;20413;-54
2023/11/21 02:34:21;;;;;;;5.05;3.97;;;24.80;99.90;;;;;;5050729;28;20478;-56
2023/11/21 02:36:51;;;;;;;5.93;4.18;;;24.80;99.90;;;;;;5048307;28;20033;-54
2023/11/21 02:39:17;;;;;;;7.68;4.68;;;24.80;99.90;;;;;;5052752;28;20139;-53
2023/11/21 02:41:44;;;;;;;6.00;4.60;;;24.80;99.90;;;;;;5048308;28;20113;-56
2023/11/21 02:44:10;;;;;;;6.82;4.22;;;24.80;99.90;;;;;;5052037;28;20032;-53
2023/11/21 02:46:36;;;;;;;5.85;4.15;;;24.80;99.90;;;;;;5053118;28;20028;-55
2023/11/21 02:49:03;;;;;;;6.00;3.92;;;24.80;99.90;;;;;;5040392;28;20017;-55
2023/11/21 02:51:33;;;;;;;7.35;4.55;;;24.80;99.90;;;;;;5053130;28;20025;-55
2023/11/21 02:54:00;;;;;;;5.95;4.93;;;24.80;99.90;;;;;;5052924;28;20017;-56
2023/11/21 02:56:26;;;;;;;;;;;24.80;99.90;;;;;;5053849;28;20032;-55
2023/11/21 02:58:52;;;;;;;6.85;5.07;;;24.80;99.90;;;;;;5038179;28;19905;-54
2023/11/21 03:01:18;;;;;;;4.78;4.13;;;24.80;99.90;;;;;;5056648;22;20136;-47
2023/11/21 03:03:44;;;;;;;5.60;4.38;;;24.70;99.90;;;;;;5033211;28;20128;-46
2023/11/21 03:06:10;;;;;;;6.63;4.22;;;24.80;99.90;;;;;;5031455;28;20037;-47
2023/11/21 03:08:35;;;;;;;4.88;3.80;;;24.70;99.90;;;;;;5032240;28;20048;-46
2023/11/21 03:11:04;;;;;;;4.28;3.85;;;24.70;99.90;;;;;;5033042;28;20026;-47
2023/11/21 03:13:30;;;;;;;4.85;4.22;;;24.70;99.90;;;;;;5032828;28;20025;-46
2023/11/21 03:15:56;;;;;;;4.80;3.80;;;24.70;99.90;;;;;;5032989;28;20466;-46
2023/11/21 03:18:22;;;;;;;5.57;4.28;;;24.70;99.90;;;;;;5032796;28;20103;-47
2023/11/21 03:20:48;;;;;;;4.95;3.58;;;24.70;99.90;;;;;;5032926;28;20025;-48
2023/11/21 03:23:15;;;;;;;9.32;4.57;;;24.60;99.90;;;;;;5032801;28;20022;-46
2023/11/21 03:25:40;;;;;;;5.15;3.95;;;24.70;99.90;;;;;;5032978;28;20040;-46
2023/11/21 03:28:08;;;;;;;5.68;4.03;;;24.60;99.90;;;;;;5032384;28;20389;-46
2023/11/21 03:30:34;;;;;;;5.07;3.72;;;24.60;99.90;;;;;;5032729;28;20029;-46
2023/11/21 03:32:59;;;;;;;6.32;4.88;;;24.60;99.90;;;;;;5030929;28;20528;-45
2023/11/21 03:35:26;;;;;;;4.43;3.80;;;24.60;99.90;;;;;;5031018;28;20072;-46
2023/11/21 03:37:52;;;;;;;6.18;4.07;;;24.60;99.90;;;;;;5031585;28;20029;-46
2023/11/21 03:40:18;;;;;;;5.50;3.95;;;24.60;99.90;;;;;;5033091;28;20020;-45
2023/11/21 03:42:43;;;;;;;5.00;4.10;;;24.60;99.90;;;;;;5030792;28;20033;-46
2023/11/21 03:45:12;;;;;;;7.05;4.25;;;24.50;99.90;;;;;;5031847;28;20604;-46
2023/11/21 03:47:38;;;;;;;7.60;4.05;;;24.50;99.90;;;;;;5030807;28;20020;-46
2023/11/21 03:50:04;;;;;;;6.25;4.20;;;24.50;99.90;;;;;;5031862;28;20030;-46
2023/11/21 03:52:30;;;;;;;5.57;4.03;;;24.50;99.90;;;;;;5014071;28;20088;-46
2023/11/21 03:54:55;;;;;;;6.88;4.20;;;24.50;99.90;;;;;;5032480;28;20082;-46
2023/11/21 03:57:21;;;;;;;7.10;4.22;;;24.50;99.90;;;;;;5032660;28;20474;-46
2023/11/21 03:59:47;;;;;;;4.88;3.42;;;24.50;99.90;;;;;;5032548;28;20028;-46
2023/11/21 04:02:13;;;;;;;5.38;3.63;;;24.50;99.90;;;;;;5032822;28;20045;-47
2023/11/21 04:04:39;;;;;;;4.20;3.78;;;24.50;99.90;;;;;;5032261;28;20119;-47
2023/11/21 04:07:05;;;;;;;5.47;3.65;;;24.50;99.90;;;;;;5032484;28;20501;-47
2023/11/21 04:09:31;;;;;;;4.47;3.85;;;24.50;99.90;;;;;;5032457;28;20470;-47
2023/11/21 04:11:56;;;;;;;7.28;4.18;;;24.50;99.90;;;;;;5014593;28;20079;-47
2023/11/21 04:14:23;;;;;;;5.75;3.63;;;24.40;99.90;;;;;;5032332;28;20021;-47
2023/11/21 04:16:48;;;;;;;5.00;3.78;;;24.40;99.90;;;;;;5032514;28;20103;-47
2023/11/21 04:19:14;;;;;;;7.40;4.85;;;24.50;99.90;;;;;;5032263;28;20474;-47
2023/11/21 04:21:42;;;;;;;6.65;3.70;;;24.40;99.90;;;;;;5032175;28;20053;-47
2023/11/21 04:24:08;;;;;;;6.38;4.10;;;24.40;99.90;;;;;;5032363;28;20374;-47
2023/11/21 04:26:33;;;;;;;4.22;3.15;;;24.40;99.90;;;;;;5032147;28;20044;-47
2023/11/21 04:28:59;;;;;;;6.30;3.58;;;24.40;99.90;;;;;;5032108;28;20096;-47
2023/11/21 04:31:25;;;;;;;4.43;3.25;;;24.40;99.90;;;;;;5032174;28;20029;-47
2023/11/21 04:33:51;;;;;;;4.50;3.30;;;24.40;99.90;;;;;;5032224;28;20048;-47
2023/11/21 04:36:17;;;;;;;7.22;3.67;;;24.40;99.90;;;;;;5032177;28;20030;-47
2023/11/21 04:38:42;;;;;;;7.32;3.70;;;24.30;99.90;;;;;;5032138;28;20490;-46
2023/11/21 04:41:08;;;;;;;8.70;3.83;;;24.40;99.90;;;;;;5032060;28;20022;-46
2023/11/21 04:43:34;;;;;;;5.10;3.45;;;24.30;99.90;;;;;;5031904;28;20038;-46
2023/11/21 04:46:01;;;;;;;4.57;3.75;;;24.30;99.90;;;;;;5032091;28;20148;-47
2023/11/21 04:48:27;;;;;;;7.60;4.10;;;24.30;99.90;;;;;;5035995;28;20044;-47
2023/11/21 04:50:53;;;;;;;5.07;3.72;;;24.30;99.90;;;;;;5035960;28;20029;-47
2023/11/21 04:53:19;;;;;;;8.63;4.28;;;24.30;99.90;;;;;;5036203;28;20024;-45
2023/11/21 04:55:45;;;;;;;5.38;3.30;;;24.30;99.90;;;;;;5035583;28;20533;-46
2023/11/21 04:58:12;;;;;;;6.35;4.40;;;24.30;99.90;;;;;;5035901;28;20029;-46
2023/11/21 05:00:38;;;;;;;5.50;3.70;;;24.30;99.90;;;;;;5035818;28;20099;-46
2023/11/21 05:03:05;;;;;;;4.82;3.45;;;24.30;99.90;;;;;;5035837;28;20022;-46
2023/11/21 05:05:30;;;;;;;5.22;3.75;;;24.20;99.90;;;;;;5035572;28;20538;-46
2023/11/21 05:07:56;;;;;;;4.32;3.72;;;24.20;99.90;;;;;;5035696;28;20033;-46
2023/11/21 05:10:22;;;;;;;5.47;3.65;;;24.20;99.90;;;;;;5018218;28;20414;-46
2023/11/21 05:12:50;;;;;;;5.70;3.40;;;24.20;99.90;;;;;;5035782;28;20056;-45
2023/11/21 05:15:19;;;;;;;6.07;4.05;;;24.20;99.90;;;;;;5035494;28;20092;-46
2023/11/21 05:17:45;;;;;;;6.20;4.00;;;24.20;99.90;;;;;;5035392;28;20052;-46
2023/11/21 05:20:17;;;;;;;10.00;3.58;;;24.20;99.90;;;;;;5035457;28;20026;-46
2023/11/21 05:22:43;;;;;;;6.38;3.75;;;24.20;99.90;;;;;;5035411;28;20492;-45
2023/11/21 05:25:11;;;;;;;4.32;3.50;;;24.20;99.90;;;;;;5035235;28;20398;-46
2023/11/21 05:27:37;;;;;;;5.78;4.05;;;24.20;99.90;;;;;;5035241;28;20036;-46
2023/11/21 05:30:09;;;;;;;4.30;3.30;;;24.20;99.90;;;;;;5035186;28;20025;-46
2023/11/21 05:32:35;;;;;;;8.38;3.95;;;24.10;99.90;;;;;;5034971;28;20057;-46
2023/11/21 05:35:01;;;;;;;11.63;3.67;;;24.10;99.90;;;;;;5035286;28;20101;-46
2023/11/21 05:37:27;;;;;;;4.70;3.40;;;24.10;99.90;;;;;;5035096;28;20032;-46
2023/11/21 05:39:59;;;;;;;4.97;3.60;;;24.10;99.90;;;;;;5035276;28;20513;-47
2023/11/21 05:42:25;;;;;;;6.20;3.88;;;24.10;99.90;;;;;;5034919;28;20497;-45
2023/11/21 05:44:51;;;;;;;4.30;3.25;;;24.10;99.90;;;;;;5035073;28;20025;-46
2023/11/21 05:47:17;;;;;;;5.95;3.50;;;24.10;99.90;;;;;;5034951;28;20025;-47
2023/11/21 05:49:45;;;;;;;5.38;3.50;;;24.10;99.90;;;;;;5034919;28;20021;-46
2023/11/21 05:52:10;;;;;;;5.55;3.78;;;24.10;99.90;;;;;;5034779;28;20101;-47
2023/11/21 05:54:36;;;;;;;7.88;3.85;;;24.10;99.90;;;;;;5034913;28;20451;-46
2023/11/21 05:57:02;;;;;;;5.60;3.20;;;24.00;99.90;;;;;;5034749;28;20025;-46
2023/11/21 05:59:28;;;;;;;8.02;3.58;;;24.00;99.90;;;;;;5033931;28;20378;-46
2023/11/21 06:01:53;;;;;;;4.70;3.47;;;24.00;99.90;;;;;;5032510;28;20103;-46
2023/11/21 06:04:23;;;;;;;6.97;4.18;;;24.00;99.90;;;;;;5033901;28;20041;-47
2023/11/21 06:06:50;;;;;;;6.15;3.92;;;24.00;99.90;;;;;;5033301;28;20075;-47
2023/11/21 06:09:16;;;;;;;5.35;3.97;;;24.00;99.90;;;;;;5033324;28;20029;-48
2023/11/21 06:11:41;;;;;;;4.10;3.22;;;24.00;99.90;;;;;;5034490;28;20022;-47
2023/11/21 06:14:09;;;;;;;7.88;3.75;;;24.00;99.90;;;;;;5034375;28;20026;-46
2023/11/21 06:16:35;;;;;;;6.60;3.92;;;24.00;99.90;;;;;;5034354;28;20032;-47
2023/11/21 06:19:01;;;;;;;5.22;3.85;;;24.00;99.90;;;;;;5033443;28;20032;-47
2023/11/21 06:21:27;;;;;;;5.47;4.03;;;24.00;99.90;;;;;;5034267;28;20108;-47
2023/11/21 06:23:53;;;;;;;4.78;3.38;;;24.00;99.90;;;;;;5034466;28;20034;-46
2023/11/21 06:26:19;;;;;;;6.10;4.00;;;24.00;99.90;;;;;;5034025;28;20030;-46
2023/11/21 06:28:45;;;;;;;5.70;3.63;;;24.00;99.90;;;;;;5034129;28;20031;-47
2023/11/21 06:31:10;;;;;;;7.20;4.20;;;24.00;99.90;;;;;;5034149;28;20025;-48
2023/11/21 06:33:36;;;;;;;6.20;4.10;;;24.00;99.90;;;;;;5034063;28;20022;-46
2023/11/21 06:36:02;;;;;;;5.45;3.95;;;24.00;99.90;;;;;;5034008;28;20032;-47
2023/11/21 06:38:30;;;;;;;8.05;4.78;;;24.00;99.90;;;;;;5033991;28;20029;-46
2023/11/21 06:40:58;;;;;;;6.65;4.13;;;23.90;99.90;;;;;;5034136;28;20075;-46
2023/11/21 06:43:23;;;;;;;5.97;3.97;;;23.90;99.90;;;;;;5033977;28;20501;-47
2023/11/21 06:45:49;;;;;;;5.75;4.18;;;23.90;99.90;;;;;;5033652;28;20033;-47
2023/11/21 06:48:15;;;;;;;6.43;4.28;;;23.90;99.90;;;;;;5033564;28;20501;-47
2023/11/21 06:50:41;;;;;;;5.65;4.57;;;23.90;99.90;;;;;;5033597;28;20064;-47
2023/11/21 06:53:09;;;;;;;5.88;4.07;;;23.90;99.90;;;;;;5033521;28;20072;-47
2023/11/21 06:55:35;;;;;;;5.40;4.45;;;23.90;99.90;;;;;;5033616;28;20020;-47
2023/11/21 06:58:01;;;;;;;7.00;4.82;;;23.90;99.90;;;;;;5033468;28;20029;-47
2023/11/21 07:00:30;;;;;;;7.10;4.10;;;23.90;99.90;;;;;;5033600;28;20025;-47
2023/11/21 07:02:55;;;;;;;4.93;3.67;;;23.90;99.90;;;;;;5033402;28;20049;-46
2023/11/21 07:05:22;;;;;;;6.65;4.00;;;23.90;99.90;;;;;;5033257;28;20041;-48
2023/11/21 07:07:49;;;;;;;4.40;3.78;;;23.90;99.90;;;;;;5033216;28;20028;-47
2023/11/21 07:10:15;;;;;;;10.73;3.88;;;23.80;99.90;;;;;;5032274;28;20382;-47
2023/11/21 07:12:41;;;;;;;6.15;3.90;;;23.80;99.90;;;;;;5033120;28;20021;-46
2023/11/21 07:15:09;;;;;;;7.45;4.18;;;23.80;99.90;;;;;;5033211;28;20025;-47
2023/11/21 07:17:38;;;;;;;7.30;4.00;;;23.80;99.90;;;;;;5033140;28;20036;-47
2023/11/21 07:20:06;;;;;;;8.82;4.70;;;23.80;99.90;;;;;;5033213;28;20044;-48
2023/11/21 07:22:32;;;;;;;6.13;4.40;;;23.80;99.90;;;;;;5032953;28;20021;-47
2023/11/21 07:24:58;;;;;;;5.82;4.15;;;23.80;99.90;;;;;;5032975;28;20489;-47
2023/11/21 07:27:23;;;;;;;9.70;4.70;;;23.80;99.90;;;;;;5033138;28;20078;-47
2023/11/21 07:29:49;;;;;;;4.90;4.22;;;23.90;99.90;;;;;;5033061;28;20913;-47
2023/11/21 07:32:15;;;;;;;7.57;4.50;;;23.90;99.90;;;;;;5032900;28;20052;-48
2023/11/21 07:34:41;;;;;;;7.43;4.70;;;23.90;99.90;;;;;;5032828;28;20025;-47
2023/11/21 07:37:08;;;;;;;6.57;4.18;;;23.90;99.90;;;;;;5032802;28;20488;-47
2023/11/21 07:39:36;;;;;;;8.90;4.32;;;23.90;99.90;;;;;;5032788;28;20092;-47
2023/11/21 07:42:02;;;;;;;6.38;4.47;;;23.90;99.90;;;;;;5032816;28;20029;-47
2023/11/21 07:44:28;;;;;;;6.97;3.95;;;24.00;99.90;;;;;;5032898;28;20037;-47
2023/11/21 07:46:58;;;;;;;8.35;4.38;;;24.00;99.90;;;;;;5032883;28;20022;-47
2023/11/21 07:49:24;;;;;;;6.13;4.38;;;24.00;99.90;;;;;;5032600;28;20030;-48
2023/11/21 07:51:50;;;;;;;7.78;4.38;;;24.00;99.90;;;;;;5015069;28;20518;-47
2023/11/21 07:54:16;;;;;;;7.97;4.30;;;24.10;99.90;;;;;;5032581;28;20384;-47
2023/11/21 07:56:42;;;;;;;8.93;4.28;;;24.10;99.90;;;;;;5032595;28;20033;-47
2023/11/21 07:59:08;;;;;;;5.93;3.97;;;24.20;99.90;;;;;;5032412;28;20101;-46
2023/11/21 08:01:34;;;;;;;6.75;4.18;;;24.20;99.90;;;;;;5032404;28;20045;-48
2023/11/21 08:04:03;;;;;;;5.68;4.03;;;24.20;99.90;;;;;;5032612;28;20069;-47
2023/11/21 08:06:30;;;;;;;6.15;3.83;;;24.30;99.90;;;;;;5032575;28;20025;-47
2023/11/21 08:08:56;;;;;;;7.15;4.95;;;24.20;99.90;;;;;;5014955;28;20109;-48
2023/11/21 08:11:22;;;;;;;6.60;4.40;;;24.30;99.90;;;;;;5014464;28;20120;-48
2023/11/21 08:13:48;;;;;;;6.40;3.88;;;24.30;99.90;;;;;;5032134;28;20160;-47
2023/11/21 08:16:15;;;;;;;7.13;4.35;;;24.40;99.90;;;;;;5032196;28;20078;-48
2023/11/21 08:18:41;;;;;;;9.13;4.67;;;24.40;99.90;;;;;;5032269;28;20028;-48
2023/11/21 08:21:07;;;;;;;6.40;4.63;;;24.40;99.90;;;;;;5031932;28;20025;-47
2023/11/21 08:23:34;;;;;;;8.50;4.60;;;24.50;99.90;;;;;;5032167;28;20113;-48
2023/11/21 08:26:00;;;;;;;6.18;3.90;;;24.50;99.90;;;;;;5032407;28;20355;-49
2023/11/21 08:28:26;;;;;;;7.13;4.22;;;24.50;99.90;;;;;;5032018;28;20021;-48
2023/11/21 08:30:54;;;;;;;6.95;4.57;;;24.50;99.90;;;;;;5031951;28;20037;-48
2023/11/21 08:33:19;;;;;;;6.78;4.28;;;24.60;99.90;;;;;;5032103;28;20535;-48
2023/11/21 08:35:45;;;;;;;7.03;4.72;;;24.60;99.90;;;;;;5032045;28;20029;-48
2023/11/21 08:38:12;;;;;;;4.40;3.80;;;24.60;99.90;;;;;;5032105;28;20026;-47
2023/11/21 08:40:38;;;;;;;5.60;4.18;;;24.70;99.90;;;;;;5014579;28;20030;-47
2023/11/21 08:43:04;;;;;;;8.13;4.30;;;24.70;99.90;;;;;;5031915;28;20401;-47
2023/11/21 08:45:31;;;;;;;5.18;3.95;;;24.70;99.90;;;;;;5032068;28;20113;-47
2023/11/21 08:47:56;;;;;;;5.53;3.80;;;24.70;99.90;;;;;;5031962;28;20025;-48
2023/11/21 08:50:22;;;;;;;6.85;3.88;;;24.80;99.90;;;;;;5031406;28;20040;-47
2023/11/21 08:52:48;;;;;;;6.07;4.13;;;24.80;99.90;;;;;;5031982;28;20026;-47
2023/11/21 08:55:15;;;;;;;9.02;4.70;;;24.80;99.90;;;;;;5032006;28;20041;-48
2023/11/21 08:57:43;;;;;;;10.05;3.70;;;24.90;99.90;;;;;;5031771;28;20043;-48
2023/11/21 09:00:19;;;;;;;6.82;3.95;;;24.90;99.90;;;;;;5031895;28;20024;-47
2023/11/21 09:02:45;;;;;;;6.20;3.97;;;24.90;99.90;;;;;;5031651;28;20046;-48
2023/11/21 09:05:12;;;;;;;6.75;4.05;;;25.00;99.90;;;;;;5014201;28;20481;-48
2023/11/21 09:07:40;;;;;;;5.32;4.38;;;25.00;99.90;;;;;;5014230;28;20438;-47
2023/11/21 09:10:07;;;;;;;6.60;3.75;;;25.00;99.90;;;;;;5031709;28;20025;-48
2023/11/21 09:12:34;;;;;;;8.43;4.30;;;25.10;99.90;;;;;;5031784;28;20022;-48
2023/11/21 09:15:04;;;;;;;;;;;25.10;99.90;;;;;;5032233;28;20076;-47
2023/11/21 09:17:30;;;;;;;11.98;5.40;;;25.10;99.90;;;;;;5031683;28;19912;-48
2023/11/21 09:19:57;;;;;;;7.72;4.38;;;25.20;99.90;;;;;;5031600;28;20037;-47
2023/11/21 09:22:24;;;;;;;7.88;4.03;;;25.20;99.90;;;;;;5031433;28;20056;-49
2023/11/21 09:24:51;;;;;;;8.57;4.30;;;25.20;99.90;;;;;;5031495;28;20039;-48
2023/11/21 09:27:17;;;;;;;6.53;3.80;;;25.30;99.90;;;;;;5013823;28;20052;-52
2023/11/21 09:29:43;;;;;;;7.05;4.03;;;25.30;99.90;;;;;;5031685;28;20033;-48
2023/11/21 09:32:11;;;;;;;7.10;3.95;;;25.30;99.90;;;;;;5031380;28;20030;-48
2023/11/21 09:34:38;;;;;;;9.10;4.93;;;25.40;99.90;;;;;;5033948;28;20033;-48
2023/11/21 09:37:08;;;;;;;4.82;3.38;;;25.40;99.90;;;;;;5017555;28;20018;-48
2023/11/21 09:39:34;;;;;;;5.95;3.58;;;25.40;99.90;;;;;;5035061;28;20033;-48
2023/11/21 09:42:14;;;;;;;5.05;4.00;;;25.50;99.90;;;;;;5034894;28;20386;-48
2023/11/21 09:44:55;;;;;;;7.43;3.83;;;25.50;99.90;;;;;;5034886;28;20034;-47
2023/11/21 09:47:22;;;;;;;7.20;4.30;;;25.60;99.90;;;;;;5034743;28;20017;-48
2023/11/21 09:49:51;;;;;;;5.67;3.50;;;25.60;99.90;;;;;;5033956;28;20021;-48
2023/11/21 09:52:27;;;;;;;5.35;3.67;;;25.60;99.90;;;;;;5034511;28;20033;-48
2023/11/21 09:54:54;;;;;;;6.80;3.97;;;25.70;99.90;;;;;;5034682;28;20036;-48
2023/11/21 09:57:24;;;;;;;6.78;3.63;;;25.80;99.90;;;;;;5034918;28;20025;-48
2023/11/21 09:59:58;;;;;;;6.00;3.80;;;25.80;99.90;;;;;;5034574;28;20029;-48
2023/11/21 10:02:32;;;;;;;7.00;4.03;;;25.80;99.90;;;;;;5033448;28;20049;-48
2023/11/21 10:04:59;;;;;;;8.65;4.03;;;25.90;99.90;;;;;;5033527;28;20033;-49
2023/11/21 10:07:26;;;;;;;7.10;4.32;;;25.90;99.90;;;;;;5033440;28;20104;-48
2023/11/21 10:09:54;;;;;;;6.70;3.47;;;26.00;99.90;;;;;;5016577;28;20029;-48
2023/11/21 10:12:22;;;;;;;8.93;3.58;;;26.00;99.90;;;;;;5034233;28;20113;-48
2023/11/21 10:14:52;;;;;;;9.18;3.60;;;26.10;99.90;;;;;;5034403;28;20025;-48
2023/11/21 10:17:21;;;;;;;9.07;4.22;;;26.10;99.90;;;;;;5034284;28;20076;-48
2023/11/21 10:19:47;;;;;;;8.98;3.75;;;26.20;99.90;;;;;;5034146;28;20036;-48
2023/11/21 10:22:17;;;;;;;9.05;3.47;;;26.20;99.90;;;;;;5033377;28;20056;-48
2023/11/21 10:24:43;;;;;;;7.72;3.45;;;26.30;99.90;;;;;;5026371;28;20030;-48
2023/11/21 10:27:09;;;;;;;5.60;3.78;;;26.30;99.90;;;;;;5025627;28;20482;-49
2023/11/21 10:29:35;;;;;;;5.45;3.50;;;26.40;99.90;;;;;;5024379;28;20029;-48
2023/11/21 10:32:05;;;;;;;9.52;3.50;;;26.40;99.90;;;;;;5024433;28;20014;-50
2023/11/21 10:34:31;;;;;;;5.72;3.40;;;26.40;99.90;;;;;;5024955;28;20359;-49
2023/11/21 10:36:58;;;;;;;6.40;3.05;;;26.50;99.90;;;;;;5007986;28;20108;-50
2023/11/21 10:39:27;;;;;;;8.00;3.33;;;26.50;99.90;;;;;;5021699;28;20034;-49
2023/11/21 10:41:55;;;;;;;6.32;3.20;;;26.60;99.90;;;;;;5027342;28;20105;-50
2023/11/21 10:44:22;;;;;;;9.20;4.55;;;26.60;99.90;;;;;;5023846;28;20120;-49
2023/11/21 10:46:55;;;;;;;5.80;3.22;;;26.60;99.90;;;;;;5024480;28;20112;-48
2023/11/21 10:49:24;;;;;;;6.53;3.50;;;26.60;99.90;;;;;;5024792;28;20034;-49
2023/11/21 10:51:52;;;;;;;6.60;3.60;;;26.70;99.90;;;;;;5025104;28;20014;-49
2023/11/21 10:54:23;;;;;;;6.28;3.55;;;26.80;99.90;;;;;;5021140;28;20036;-49
2023/11/21 10:56:51;;;;;;;8.98;3.28;;;26.80;99.90;;;;;;5028028;28;20025;-50
2023/11/21 10:59:17;;;;;;;4.55;3.45;;;26.80;99.90;;;;;;5025897;28;20041;-49
2023/11/21 11:01:45;;;;;;;4.67;3.30;;;26.80;99.90;;;;;;5014978;28;20068;-51
2023/11/21 11:04:16;;;;;;;6.63;3.55;;;26.90;99.90;;;;;;5020561;28;20129;-51
2023/11/21 11:06:43;;;;;;;12.65;5.40;;;26.90;99.90;;;;;;5028521;28;20125;-50
2023/11/21 11:09:14;;;;;;;5.63;4.00;;;26.90;99.90;;;;;;5029544;28;20021;-51
2023/11/21 11:11:47;;;;;;;8.43;4.10;;;27.00;99.90;;;;;;5022046;28;20037;-51
2023/11/21 11:14:13;;;;;;;8.05;3.70;;;27.00;99.90;;;;;;5028810;28;20028;-50
2023/11/21 11:16:41;;;;;;;6.03;3.08;;;27.00;99.90;;;;;;5028597;28;20468;-50
2023/11/21 11:19:07;;;;;;;7.20;3.40;;;27.00;99.90;;;;;;5029121;28;20040;-50
2023/11/21 11:21:42;;;;;;;6.50;3.83;;;27.00;99.90;;;;;;5028936;28;20021;-50
2023/11/21 11:24:43;;;;;;;4.53;3.58;;;27.00;99.90;;;;;;5027942;28;20060;-50
2023/11/21 11:27:35;;;;;;;4.70;3.72;;;27.00;99.90;;;;;;5012155;28;20114;-50
2023/11/21 11:30:10;;;;;;;5.30;3.40;;;27.10;99.90;;;;;;5029098;28;20018;-50
2023/11/21 11:32:56;;;;;;;7.47;3.63;;;27.10;99.90;;;;;;5028610;28;20033;-50
2023/11/21 11:35:33;;;;;;;5.57;4.10;;;27.10;99.90;;;;;;5029247;28;20049;-50
2023/11/21 11:37:59;;;;;;;6.53;3.72;;;27.20;99.90;;;;;;5029138;28;20021;-50
2023/11/21 11:40:44;;;;;;;4.75;3.30;;;27.20;99.90;;;;;;5028582;28;20079;-50
2023/11/21 11:43:10;;;;;;;8.90;3.92;;;27.20;99.90;;;;;;5028912;28;20045;-50
2023/11/21 11:45:41;;;;;;;5.30;3.67;;;27.20;99.90;;;;;;5010557;28;20152;-50
2023/11/21 11:48:07;;;;;;;5.95;4.05;;;27.20;99.90;;;;;;5029134;28;20542;-50
2023/11/21 11:50:34;;;;;;;8.68;3.72;;;27.20;99.90;;;;;;5028548;28;20258;-50
2023/11/21 11:53:13;;;;;;;7.85;4.07;;;27.30;99.90;;;;;;5028339;28;20053;-49
2023/11/21 11:55:39;;;;;;;5.35;3.55;;;27.30;99.90;;;;;;5011285;28;20022;-50
2023/11/21 11:58:06;;;;;;;10.60;3.92;;;27.40;99.90;;;;;;5011552;28;20033;-50
2023/11/21 12:00:34;;;;;;;5.35;4.40;;;27.40;99.90;;;;;;5011969;28;20446;-49
2023/11/21 12:03:04;;;;;;;9.40;4.15;;;27.40;99.90;;;;;;5011719;28;20108;-50
2023/11/21 12:05:45;;;;;;;5.30;3.67;;;27.40;99.90;;;;;;5011595;28;20385;-51
2023/11/21 12:08:11;;;;;;;5.55;3.28;;;27.50;99.90;;;;;;5011768;28;20025;-51
2023/11/21 12:10:39;;;;;;;4.93;3.45;;;27.50;99.90;;;;;;5013122;28;20029;-50
2023/11/21 12:13:14;;;;;;;6.70;3.70;;;27.50;99.90;;;;;;5011643;28;20030;-50
2023/11/21 12:15:41;;;;;;;7.68;3.72;;;27.50;99.90;;;;;;5026569;28;20029;-49
2023/11/21 12:18:07;;;;;;;5.95;3.92;;;27.50;99.90;;;;;;5027184;28;20040;-49
2023/11/21 12:20:38;;;;;;;11.02;3.90;;;27.50;99.90;;;;;;5028409;28;20072;-50
2023/11/21 12:23:05;;;;;;;7.28;4.25;;;27.40;99.90;;;;;;5011552;28;20136;-49
2023/11/21 12:25:32;;;;;;;5.97;3.55;;;27.40;99.90;;;;;;4993930;28;20041;-50
2023/11/21 12:27:59;;;;;;;13.90;4.60;;;27.40;99.90;;;;;;5011312;28;20474;-49
2023/11/21 12:30:30;;;;;;;6.10;3.77;;;27.50;99.90;;;;;;5028766;28;20049;-49
2023/11/21 12:32:58;;;;;;;11.65;4.50;;;27.50;99.90;;;;;;5027815;28;20029;-50
2023/11/21 12:35:35;;;;;;;7.38;3.80;;;27.50;99.90;;;;;;5028856;28;20024;-50
2023/11/21 12:38:02;;;;;;;6.78;4.65;;;27.50;99.90;;;;;;5028481;28;20026;-50
2023/11/21 12:40:29;;;;;;;8.70;4.22;;;27.60;99.90;;;;;;5028357;28;20461;-51
2023/11/21 12:42:57;;;;;;;7.40;3.83;;;27.60;99.90;;;;;;5027570;28;20048;-49
2023/11/21 12:45:27;;;;;;;6.78;3.58;;;27.60;99.90;;;;;;5028677;28;20505;-49
2023/11/21 12:48:07;;;;;;;9.18;3.90;;;27.70;99.90;;;;;;5027557;28;20032;-49
2023/11/21 12:50:36;;;;;;;9.40;4.97;;;27.70;99.90;;;;;;5028164;28;20472;-52